createdAt,value
2023-02-15T00:01:36.683Z,24.27
2023-02-15T00:04:04.555Z,26.33
2023-02-15T00:06:32.374Z,28.83
2023-02-15T00:09:01.695Z,25.77
2023-02-15T00:11:41.603Z,28.07
2023-02-15T00:14:10.781Z,22.30
2023-02-15T00:16:40.195Z,27.90
2023-02-15T00:19:10.747Z,31.13
2023-02-15T00:21:38.910Z,30.40
2023-02-15T00:24:09.183Z,28.27
2023-02-15T00:26:37.316Z,28.63
2023-02-15T00:29:05.192Z,31.00
2023-02-15T00:31:33.681Z,28.73
2023-02-15T00:34:03.721Z,28.27
2023-02-15T00:36:31.589Z,29.60
2023-02-15T00:38:59.391Z,24.90
2023-02-15T00:41:28.584Z,23.33
2023-02-15T00:43:56.400Z,38.83
2023-02-15T00:46:24.282Z,62.00
2023-02-15T00:48:52.158Z,39.77
2023-02-15T00:51:21.268Z,22.00
2023-02-15T00:53:51.034Z,21.80
2023-02-15T00:56:18.842Z,17.77
2023-02-15T00:58:50.222Z,16.77
2023-02-15T01:01:19.219Z,23.93
2023-02-15T01:03:47.679Z,21.37
2023-02-15T01:06:15.606Z,19.57
2023-02-15T01:08:43.412Z,19.60
2023-02-15T01:11:12.649Z,19.17
2023-02-15T01:13:40.497Z,19.87
2023-02-15T01:16:09.723Z,23.53
2023-02-15T01:18:37.671Z,22.30
2023-02-15T01:21:12.150Z,24.90
2023-02-15T01:23:39.956Z,23.50
2023-02-15T01:26:07.963Z,26.23
2023-02-15T01:28:36.790Z,23.33
2023-02-15T01:31:09.003Z,25.13
2023-02-15T01:33:37.270Z,32.77
2023-02-15T01:36:05.550Z,29.40
2023-02-15T01:38:33.447Z,28.40
2023-02-15T01:41:15.198Z,29.73
2023-02-15T01:43:43.552Z,28.37
2023-02-15T01:46:12.948Z,24.30
2023-02-15T01:48:41.568Z,31.37
2023-02-15T01:51:09.398Z,30.43
2023-02-15T01:53:39.461Z,33.23
2023-02-15T01:56:08.392Z,26.60
2023-02-15T01:58:36.776Z,27.47
2023-02-15T02:01:05.558Z,27.27
2023-02-15T02:03:38.560Z,27.67
2023-02-15T02:06:06.569Z,26.67
2023-02-15T02:08:34.640Z,26.53
2023-02-15T02:11:02.433Z,26.63
2023-02-15T02:13:30.271Z,28.13
2023-02-15T02:16:00.733Z,24.53
2023-02-15T02:18:37.772Z,29.57
2023-02-15T02:21:33.591Z,22.50
2023-02-15T02:24:11.524Z,22.07
2023-02-15T02:27:24.318Z,19.37
2023-02-15T02:30:27.933Z,17.93
2023-02-15T02:33:29.223Z,22.30
2023-02-15T02:36:04.713Z,19.00
2023-02-15T02:38:38.511Z,23.73
2023-02-15T02:41:10.929Z,23.93
2023-02-15T02:43:42.610Z,23.40
2023-02-15T02:46:13.957Z,24.07
2023-02-15T02:48:41.932Z,25.17
2023-02-15T02:51:11.109Z,25.47
2023-02-15T02:53:38.981Z,25.70
2023-02-15T02:56:08.622Z,29.27
2023-02-15T02:58:38.476Z,28.30
2023-02-15T03:01:08.012Z,27.67
2023-02-15T03:03:38.214Z,23.77
2023-02-15T03:06:08.397Z,27.37
2023-02-15T03:08:39.571Z,27.10
2023-02-15T03:11:07.401Z,65.37
2023-02-15T03:13:35.211Z,25.83
2023-02-15T03:16:20.729Z,24.40
2023-02-15T03:18:53.678Z,25.53
2023-02-15T03:21:23.879Z,272.63
2023-02-15T03:23:55.170Z,203.33
2023-02-15T03:26:23.189Z,29.60
2023-02-15T03:28:52.592Z,27.73
2023-02-15T03:31:20.491Z,27.43
2023-02-15T03:33:54.382Z,23.40
2023-02-15T03:36:26.173Z,22.17
2023-02-15T03:39:00.243Z,24.47
2023-02-15T03:41:28.625Z,25.60
2023-02-15T03:43:57.476Z,23.53
2023-02-15T03:46:26.573Z,25.83
2023-02-15T03:48:55.432Z,24.30
2023-02-15T03:51:36.039Z,27.93
2023-02-15T03:54:06.757Z,36.33
2023-02-15T03:56:36.134Z,35.43
2023-02-15T03:59:21.945Z,45.87
2023-02-15T04:02:02.611Z,52.80
2023-02-15T04:04:34.099Z,36.03
2023-02-15T04:10:57.148Z,32.83
2023-02-15T04:13:26.178Z,35.50
2023-02-15T04:16:04.659Z,34.63
2023-02-15T04:18:51.396Z,36.20
2023-02-15T04:21:37.026Z,31.27
2023-02-15T04:24:22.527Z,32.23
2023-02-15T04:26:55.796Z,33.50
2023-02-15T04:29:23.939Z,62.80
2023-02-15T04:31:51.909Z,55.03
2023-02-15T04:34:19.834Z,75.57
2023-02-15T04:36:47.650Z,54.87
2023-02-15T04:39:15.752Z,42.93
2023-02-15T04:41:43.680Z,36.53
2023-02-15T04:44:12.891Z,27.97
2023-02-15T04:46:40.710Z,24.77
2023-02-15T04:49:09.696Z,28.73
2023-02-15T04:51:37.520Z,43.43
2023-02-15T04:54:05.562Z,29.93
2023-02-15T04:56:34.857Z,71.43
2023-02-15T04:59:02.705Z,46.13
2023-02-15T05:01:32.098Z,151.23
2023-02-15T05:03:59.997Z,108.47
2023-02-15T05:06:27.922Z,68.57
2023-02-15T05:08:55.779Z,57.77
2023-02-15T05:11:23.655Z,56.03
2023-02-15T05:13:51.433Z,27.57
2023-02-15T05:16:19.334Z,28.77
2023-02-15T05:18:48.492Z,26.47
2023-02-15T05:21:17.481Z,26.40
2023-02-15T05:23:45.405Z,25.33
2023-02-15T05:26:31.114Z,26.33
2023-02-15T05:28:58.966Z,25.30
2023-02-15T05:31:27.032Z,77.13
2023-02-15T05:33:56.317Z,39.17
2023-02-15T05:36:24.191Z,47.03
2023-02-15T05:38:52.066Z,31.37
2023-02-15T05:41:19.916Z,30.30
2023-02-15T05:43:47.734Z,37.33
2023-02-15T05:46:15.670Z,32.97
2023-02-15T05:48:43.519Z,30.87
2023-02-15T05:51:14.989Z,27.13
2023-02-15T05:53:42.840Z,27.43
2023-02-15T05:56:11.463Z,24.83
2023-02-15T05:58:40.004Z,23.73
2023-02-15T06:01:11.204Z,24.40
2023-02-15T06:03:39.306Z,21.93
2023-02-15T06:06:07.403Z,25.20
2023-02-15T06:08:36.954Z,27.73
2023-02-15T06:11:04.957Z,28.30
2023-02-15T06:13:33.038Z,35.77
2023-02-15T06:16:01.440Z,23.20
2023-02-15T06:18:29.753Z,23.93
2023-02-15T06:20:57.670Z,25.80
2023-02-15T06:23:25.752Z,28.97
2023-02-15T06:25:55.204Z,33.43
2023-02-15T06:28:23.373Z,32.63
2023-02-15T06:30:51.313Z,35.00
2023-02-15T06:33:19.517Z,30.57
2023-02-15T06:35:47.523Z,83.63
2023-02-15T06:38:15.876Z,86.40
2023-02-15T06:40:43.914Z,43.43
2023-02-15T06:43:13.333Z,31.00
2023-02-15T06:45:41.562Z,38.77
2023-02-15T06:48:09.881Z,34.73
2023-02-15T06:50:37.866Z,30.67
2023-02-15T06:53:08.712Z,33.10
2023-02-15T06:55:36.774Z,27.47
2023-02-15T06:58:04.798Z,27.90
2023-02-15T07:00:34.393Z,26.43
2023-02-15T07:03:03.560Z,32.63
2023-02-15T07:05:32.753Z,30.13
2023-02-15T07:08:01.537Z,33.07
2023-02-15T07:10:29.918Z,38.27
2023-02-15T07:12:56.982Z,31.80
2023-02-15T07:15:25.465Z,35.30
2023-02-15T07:17:55.092Z,32.73
2023-02-15T07:20:24.403Z,32.57
2023-02-15T07:22:52.932Z,32.10
2023-02-15T07:25:21.091Z,31.97
2023-02-15T07:27:49.394Z,31.00
2023-02-15T07:30:18.271Z,30.50
2023-02-15T07:33:05.480Z,32.40
2023-02-15T07:35:35.511Z,29.87
2023-02-15T07:38:03.596Z,31.40
2023-02-15T07:40:31.763Z,32.47
2023-02-15T07:43:00.473Z,25.87
2023-02-15T07:45:28.579Z,27.67
2023-02-15T07:47:56.754Z,26.90
2023-02-15T07:50:25.046Z,22.80
2023-02-15T07:52:54.250Z,24.27
2023-02-15T07:55:22.357Z,26.97
2023-02-15T07:57:51.289Z,25.57
2023-02-15T08:00:21.190Z,25.33
2023-02-15T08:03:10.609Z,23.27
2023-02-15T08:05:38.705Z,21.53
2023-02-15T08:08:08.018Z,20.87
2023-02-15T08:10:55.499Z,21.60
2023-02-15T08:13:23.413Z,19.63
2023-02-15T08:15:58.080Z,60.60
2023-02-15T08:18:26.210Z,23.37
2023-02-15T08:20:54.162Z,95.37
2023-02-15T08:23:23.801Z,25.87
2023-02-15T08:25:55.114Z,12.77
2023-02-15T08:28:23.310Z,15.30
2023-02-15T08:30:51.536Z,15.40
2023-02-15T08:33:19.846Z,13.73
2023-02-15T08:35:48.127Z,15.40
2023-02-15T08:38:16.560Z,13.97
2023-02-15T08:40:47.940Z,17.67
2023-02-15T08:43:16.008Z,15.17
2023-02-15T08:45:44.455Z,15.40
2023-02-15T08:48:12.549Z,14.67
2023-02-15T08:50:40.935Z,12.30
2023-02-15T08:53:09.142Z,12.93
2023-02-15T08:55:37.287Z,14.27
2023-02-15T08:58:06.690Z,80.50
2023-02-15T09:00:34.764Z,16.57
2023-02-15T09:03:02.753Z,16.93
2023-02-15T09:05:30.735Z,18.13
2023-02-15T09:07:58.692Z,15.73
2023-02-15T09:10:26.799Z,17.97
2023-02-15T09:12:54.911Z,14.70
2023-02-15T09:15:24.436Z,13.07
2023-02-15T09:17:52.458Z,17.10
2023-02-15T09:20:20.483Z,14.87
2023-02-15T09:22:48.448Z,12.87
2023-02-15T09:25:16.630Z,11.87
2023-02-15T09:27:44.670Z,12.80
2023-02-15T09:30:14.189Z,12.83
2023-02-15T09:32:43.605Z,15.13
2023-02-15T09:35:11.640Z,19.77
2023-02-15T09:37:39.704Z,11.97
2023-02-15T09:40:08.586Z,15.80
2023-02-15T09:42:57.456Z,15.10
2023-02-15T09:45:41.436Z,20.90
2023-02-15T09:48:36.365Z,13.23
2023-02-15T09:51:12.123Z,11.83
2023-02-15T09:53:49.401Z,13.40
2023-02-15T09:56:27.977Z,13.30
2023-02-15T09:58:58.280Z,13.60
2023-02-15T10:01:29.853Z,11.07
2023-02-15T10:04:10.634Z,11.37
2023-02-15T10:06:43.125Z,11.67
2023-02-15T10:09:24.884Z,11.67
2023-02-15T10:12:03.775Z,11.43
2023-02-15T10:14:58.195Z,15.20
2023-02-15T10:17:36.343Z,14.30
2023-02-15T10:20:12.978Z,33.33
2023-02-15T10:22:46.238Z,17.03
2023-02-15T10:25:26.538Z,11.50
2023-02-15T10:27:54.534Z,10.33
2023-02-15T10:30:25.408Z,11.73
2023-02-15T10:33:30.991Z,13.33
2023-02-15T10:39:52.977Z,23.23
2023-02-15T10:43:16.858Z,10.20
2023-02-15T10:45:52.834Z,10.83
2023-02-15T10:48:41.870Z,8.33
2023-02-15T10:55:04.138Z,8.57
2023-02-15T10:57:42.775Z,11.07
2023-02-15T11:00:12.970Z,6.17
2023-02-15T11:03:14.937Z,5.83
2023-02-15T11:05:46.203Z,6.67
2023-02-15T11:08:14.216Z,14.73
2023-02-15T11:10:45.422Z,8.43
2023-02-15T11:13:15.501Z,9.83
2023-02-15T11:15:45.720Z,8.63
2023-02-15T11:18:15.310Z,7.63
2023-02-15T11:20:46.153Z,11.10
2023-02-15T11:23:17.346Z,18.13
2023-02-15T11:25:47.953Z,21.50
2023-02-15T11:28:20.259Z,32.33
2023-02-15T11:30:52.668Z,24.27
2023-02-15T11:33:23.394Z,40.00
2023-02-15T11:35:53.199Z,21.97
2023-02-15T11:38:22.341Z,15.60
2023-02-15T11:40:52.903Z,18.27
2023-02-15T11:43:24.044Z,19.37
2023-02-15T11:45:52.077Z,12.53
2023-02-15T11:48:20.129Z,10.93
2023-02-15T11:50:48.458Z,11.10
2023-02-15T11:53:17.368Z,7.77
2023-02-15T11:55:45.814Z,8.37
2023-02-15T11:58:21.096Z,14.20
2023-02-15T12:00:50.008Z,12.03
2023-02-15T12:03:21.423Z,12.13
2023-02-15T12:05:51.968Z,11.53
2023-02-15T12:08:20.761Z,11.63
2023-02-15T12:11:05.213Z,17.47
2023-02-15T12:13:34.609Z,12.20
2023-02-15T12:16:10.526Z,9.33
2023-02-15T12:18:40.464Z,7.77
2023-02-15T12:21:09.858Z,8.97
2023-02-15T12:23:43.615Z,9.60
2023-02-15T12:26:11.638Z,28.87
2023-02-15T12:28:42.851Z,46.67
2023-02-15T12:31:20.069Z,16.07
2023-02-15T12:33:48.145Z,15.13
2023-02-15T12:36:19.657Z,11.90
2023-02-15T12:39:04.057Z,34.77
2023-02-15T12:41:32.049Z,21.50
2023-02-15T12:44:14.382Z,8.83
2023-02-15T12:46:42.572Z,7.00
2023-02-15T12:49:20.848Z,13.60
2023-02-15T12:51:50.599Z,8.40
2023-02-15T12:54:33.227Z,14.67
2023-02-15T12:57:01.325Z,8.97
2023-02-15T12:59:31.286Z,36.33
2023-02-15T13:01:59.373Z,12.67
2023-02-15T13:04:28.406Z,6.83
2023-02-15T13:06:57.924Z,8.83
2023-02-15T13:09:35.667Z,8.73
2023-02-15T13:12:13.127Z,7.70
2023-02-15T13:14:45.315Z,19.90
2023-02-15T13:17:13.384Z,14.50
2023-02-15T13:19:43.087Z,7.83
2023-02-15T13:22:15.352Z,7.97
2023-02-15T13:24:44.513Z,6.07
2023-02-15T13:27:15.979Z,3.60
2023-02-15T13:29:46.884Z,2.53
2023-02-15T13:32:22.861Z,4.27
2023-02-15T13:34:50.888Z,3.37
2023-02-15T13:37:20.774Z,3.53
2023-02-15T13:39:49.410Z,14.90
2023-02-15T13:42:22.995Z,9.17
2023-02-15T13:45:02.001Z,10.87
2023-02-15T13:47:33.563Z,43.13
2023-02-15T13:50:23.051Z,7.40
2023-02-15T13:52:54.555Z,16.40
2023-02-15T13:55:30.388Z,9.80
2023-02-15T13:58:12.946Z,4.53
2023-02-15T14:00:45.498Z,6.67
2023-02-15T14:03:42.711Z,30.27
2023-02-15T14:06:17.362Z,45.50
2023-02-15T14:08:59.772Z,19.37
2023-02-15T14:11:29.855Z,27.37
2023-02-15T14:14:03.877Z,7.90
2023-02-15T14:16:38.571Z,12.77
2023-02-15T14:19:12.175Z,20.63
2023-02-15T14:21:42.464Z,5.53
2023-02-15T14:24:17.818Z,34.40
2023-02-15T14:26:49.724Z,43.13
2023-02-15T14:29:22.476Z,6.00
2023-02-15T14:31:54.313Z,15.93
2023-02-15T14:34:24.816Z,4.10
2023-02-15T14:36:52.986Z,13.83
2023-02-15T14:40:00.496Z,43.07
2023-02-15T14:42:33.162Z,22.77
2023-02-15T14:45:03.484Z,18.47
2023-02-15T14:47:34.646Z,13.57
2023-02-15T14:50:18.130Z,9.37
2023-02-15T14:53:21.472Z,15.77
2023-02-15T14:55:49.289Z,13.43
2023-02-15T14:58:17.106Z,92.60
2023-02-15T15:00:44.983Z,26.37
2023-02-15T15:03:21.990Z,21.77
2023-02-15T15:05:51.221Z,5.30
2023-02-15T15:08:24.866Z,61.27
2023-02-15T15:10:52.730Z,28.93
2023-02-15T15:13:43.250Z,18.40
2023-02-15T15:16:41.138Z,24.40
2023-02-15T15:19:12.674Z,6.80
2023-02-15T15:21:57.196Z,24.43
2023-02-15T15:24:53.554Z,35.20
2023-02-15T15:27:45.937Z,31.07
2023-02-15T15:31:02.666Z,13.77
2023-02-15T15:34:22.537Z,12.63
2023-02-15T15:37:14.954Z,7.33
2023-02-15T15:40:13.939Z,28.30
2023-02-15T15:42:50.262Z,44.20
2023-02-15T15:45:39.708Z,30.07
2023-02-15T15:48:24.346Z,12.87
2023-02-15T15:50:54.938Z,9.07
2023-02-15T15:53:25.854Z,27.57
2023-02-15T15:55:57.064Z,31.90
2023-02-15T15:58:24.896Z,18.83
2023-02-15T16:00:53.310Z,38.70
2023-02-15T16:03:23.140Z,45.30
2023-02-15T16:05:53.857Z,30.73
2023-02-15T16:08:29.877Z,65.03
2023-02-15T16:10:57.847Z,49.00
2023-02-15T16:13:25.665Z,66.50
2023-02-15T16:15:54.144Z,56.07
2023-02-15T16:18:25.265Z,59.37
2023-02-15T16:20:55.252Z,27.43
2023-02-15T16:23:47.662Z,6.93
2023-02-15T16:26:17.180Z,12.00
2023-02-15T16:28:50.107Z,12.03
2023-02-15T16:31:18.389Z,20.17
2023-02-15T16:33:46.415Z,70.03
2023-02-15T16:36:22.661Z,55.63
2023-02-15T16:39:10.209Z,119.77
2023-02-15T16:41:38.700Z,155.03
2023-02-15T16:44:09.095Z,106.63
2023-02-15T16:46:40.243Z,142.87
2023-02-15T16:49:10.112Z,156.77
2023-02-15T16:51:37.972Z,167.00
2023-02-15T16:54:09.176Z,179.07
2023-02-15T16:56:37.342Z,188.40
2023-02-15T16:59:05.352Z,177.37
2023-02-15T17:01:33.951Z,132.87
2023-02-15T17:04:14.848Z,127.80
2023-02-15T17:06:42.755Z,119.20
2023-02-15T17:09:19.363Z,139.37
2023-02-15T17:11:47.260Z,130.90
2023-02-15T17:14:22.813Z,131.30
2023-02-15T17:16:52.117Z,116.13
2023-02-15T17:19:22.808Z,77.47
2023-02-15T17:21:52.510Z,95.37
2023-02-15T17:24:24.762Z,92.93
2023-02-15T17:26:53.506Z,93.90
2023-02-15T17:29:24.554Z,107.90
2023-02-15T17:31:53.238Z,121.60
2023-02-15T17:34:46.157Z,91.10
2023-02-15T17:37:14.329Z,75.20
2023-02-15T17:39:43.489Z,78.63
2023-02-15T17:42:11.304Z,81.47
2023-02-15T17:44:39.094Z,74.17
2023-02-15T17:47:07.413Z,76.70
2023-02-15T17:49:37.920Z,299.23
2023-02-15T17:52:06.121Z,124.20
2023-02-15T17:54:51.646Z,111.77
2023-02-15T17:57:20.862Z,113.60
2023-02-15T18:00:06.339Z,122.70
2023-02-15T18:02:53.474Z,113.63
2023-02-15T18:05:38.854Z,104.57
2023-02-15T18:08:24.937Z,90.37
2023-02-15T18:11:10.305Z,88.80
2023-02-15T18:13:39.516Z,79.87
2023-02-15T18:16:07.446Z,91.40
2023-02-15T18:18:35.294Z,74.80
2023-02-15T18:21:03.396Z,71.70
2023-02-15T18:23:31.418Z,49.47
2023-02-15T18:25:59.268Z,163.53
2023-02-15T18:28:27.103Z,92.90
2023-02-15T18:30:56.280Z,173.47
2023-02-15T18:33:30.444Z,102.80
2023-02-15T18:35:58.279Z,122.57
2023-02-15T18:38:26.111Z,126.00
2023-02-15T18:40:53.916Z,84.90
2023-02-15T18:43:21.750Z,79.47
2023-02-15T18:45:49.588Z,77.00
2023-02-15T18:48:18.821Z,98.83
2023-02-15T18:50:46.653Z,87.33
2023-02-15T18:53:17.459Z,74.00
2023-02-15T18:55:45.294Z,70.37
2023-02-15T18:58:17.176Z,73.93
2023-02-15T19:00:45.490Z,65.27
2023-02-15T19:03:14.443Z,97.63
2023-02-15T19:05:45.766Z,132.03
2023-02-15T19:08:19.244Z,91.77
2023-02-15T19:10:47.099Z,95.27
2023-02-15T19:13:15.037Z,81.80
2023-02-15T19:15:42.876Z,64.43
2023-02-15T19:18:10.761Z,71.33
2023-02-15T19:20:39.458Z,66.00
2023-02-15T19:23:09.403Z,63.47
2023-02-15T19:25:37.982Z,64.40
2023-02-15T19:28:14.854Z,48.70
2023-02-15T19:30:42.704Z,55.47
2023-02-15T19:33:14.470Z,48.87
2023-02-15T19:35:42.294Z,46.73
2023-02-15T19:38:16.933Z,46.60
2023-02-15T19:40:45.165Z,42.20
2023-02-15T19:43:16.442Z,41.97
2023-02-15T19:45:44.321Z,49.13
2023-02-15T19:48:13.729Z,45.07
2023-02-15T19:50:43.428Z,70.77
2023-02-15T19:53:19.638Z,68.70
2023-02-15T19:55:47.457Z,60.70
2023-02-15T19:58:15.319Z,49.33
2023-02-15T20:00:43.133Z,59.10
2023-02-15T20:03:10.972Z,68.23
2023-02-15T20:05:39.219Z,54.43
2023-02-15T20:08:08.913Z,54.97
2023-02-15T20:10:39.131Z,51.00
2023-02-15T20:13:06.963Z,44.37
2023-02-15T20:15:35.717Z,39.63
2023-02-15T20:18:04.246Z,44.20
2023-02-15T20:20:33.588Z,42.70
2023-02-15T20:23:01.411Z,41.90
2023-02-15T20:25:30.338Z,46.93
2023-02-15T20:28:00.052Z,50.37
2023-02-15T20:30:29.765Z,32.13
2023-02-15T20:32:57.898Z,40.03
2023-02-15T20:35:28.535Z,45.27
2023-02-15T20:37:59.521Z,33.83
2023-02-15T20:40:28.457Z,31.40
2023-02-15T20:42:56.268Z,34.00
2023-02-15T20:45:26.382Z,32.73
2023-02-15T20:47:54.323Z,33.27
2023-02-15T20:50:24.858Z,27.70
2023-02-15T20:52:53.590Z,29.13
2023-02-15T20:55:22.262Z,37.67
2023-02-15T20:57:50.094Z,27.10
2023-02-15T21:00:20.228Z,33.50
2023-02-15T21:02:50.127Z,34.77
2023-02-15T21:05:19.313Z,41.97
2023-02-15T21:07:47.279Z,33.67
2023-02-15T21:10:19.222Z,37.50
2023-02-15T21:12:47.160Z,36.53
2023-02-15T21:15:31.709Z,30.93
2023-02-15T21:18:02.348Z,36.87
2023-02-15T21:20:30.843Z,34.53
2023-02-15T21:22:59.625Z,32.20
2023-02-15T21:25:28.570Z,30.00
2023-02-15T21:27:56.405Z,33.77
2023-02-15T21:30:25.087Z,32.63
2023-02-15T21:32:52.972Z,39.77
2023-02-15T21:35:22.499Z,43.67
2023-02-15T21:37:52.178Z,70.50
2023-02-15T21:40:21.559Z,44.13
2023-02-15T21:43:07.100Z,38.03
2023-02-15T21:45:52.694Z,29.80
2023-02-15T21:48:22.144Z,34.20
2023-02-15T21:51:08.943Z,26.40
2023-02-15T21:53:37.401Z,29.67
2023-02-15T21:56:06.431Z,32.70
2023-02-15T21:58:36.631Z,26.83
2023-02-15T22:01:04.963Z,27.47
2023-02-15T22:03:33.765Z,25.27
2023-02-15T22:06:03.060Z,24.83
2023-02-15T22:08:31.047Z,32.80
2023-02-15T22:10:58.897Z,31.77
2023-02-15T22:13:28.260Z,31.17
2023-02-15T22:15:56.387Z,36.37
2023-02-15T22:18:25.252Z,33.93
2023-02-15T22:20:53.338Z,29.73
2023-02-15T22:23:22.549Z,41.20
2023-02-15T22:25:54.595Z,28.43
2023-02-15T22:28:24.284Z,31.57
2023-02-15T22:30:52.124Z,26.57
2023-02-15T22:33:25.185Z,28.37
2023-02-15T22:35:53.076Z,27.73
2023-02-15T22:38:22.254Z,29.67
2023-02-15T22:40:50.500Z,24.77
2023-02-15T22:43:29.222Z,39.97
2023-02-15T22:45:58.632Z,43.93
2023-02-15T22:48:26.741Z,44.83
2023-02-15T22:50:54.556Z,37.10
2023-02-15T22:53:23.736Z,32.97
2023-02-15T22:55:51.609Z,33.20
2023-02-15T22:58:21.400Z,31.93
2023-02-15T23:00:49.395Z,31.90
2023-02-15T23:03:18.138Z,34.67
2023-02-15T23:05:46.073Z,26.37
2023-02-15T23:08:13.993Z,32.27
2023-02-15T23:10:43.642Z,26.57
2023-02-15T23:13:25.614Z,27.27
2023-02-15T23:15:56.263Z,27.03
2023-02-15T23:18:26.466Z,26.83
2023-02-15T23:20:55.907Z,30.43
2023-02-15T23:23:28.293Z,22.67
2023-02-15T23:25:57.556Z,19.47
2023-02-15T23:28:27.679Z,20.13
2023-02-15T23:30:55.546Z,17.57
2023-02-15T23:33:24.537Z,17.60
2023-02-15T23:35:52.329Z,20.13
2023-02-15T23:38:21.994Z,25.30
2023-02-15T23:41:09.680Z,21.27
2023-02-15T23:43:38.885Z,23.87
2023-02-15T23:46:06.890Z,35.23
2023-02-15T23:48:36.378Z,30.13
2023-02-15T23:51:04.821Z,26.80
2023-02-15T23:53:32.881Z,25.93
2023-02-15T23:56:00.699Z,26.93
2023-02-15T23:58:35.171Z,31.83
